Time;durP1;ratioP1;P1;durP2;ratioP2;P2;SDS_P1;SDS_P2;PMS_P1;PMS_P2;Temp;Humidity;BMP_temperature;BMP_pressure;BME280_temperature;BME280_humidity;BME280_pressure;Samples;Min_cycle;Max_cycle;Signal;HPM_P1;HPM_P2
2023/01/14 00:01:17;;;;;;;3.03;1.40;;;18.10;54.00;;;;;;4973594;28;20255;-84
2023/01/14 00:03:45;;;;;;;1.92;1.20;;;18.00;54.00;;;;;;4990070;28;20152;-84
2023/01/14 00:06:14;;;;;;;1.77;1.08;;;18.00;54.00;;;;;;4972871;28;20164;-84
2023/01/14 00:08:40;;;;;;;2.15;1.13;;;18.00;54.00;;;;;;4957172;28;20164;-85
2023/01/14 00:11:09;;;;;;;1.63;1.10;;;18.00;54.10;;;;;;4957211;28;20519;-84
2023/01/14 00:13:36;;;;;;;1.25;1.00;;;18.00;54.10;;;;;;4956571;28;20199;-84
2023/01/14 00:16:02;;;;;;;1.42;0.98;;;18.00;54.00;;;;;;4988945;28;20239;-84
2023/01/14 00:18:33;;;;;;;1.50;1.10;;;18.00;54.10;;;;;;4972982;28;20199;-83
2023/01/14 00:21:02;;;;;;;2.20;1.02;;;18.00;54.10;;;;;;4956387;28;20168;-84
2023/01/14 00:23:32;;;;;;;2.72;1.00;;;18.00;54.20;;;;;;4972425;28;20153;-84
2023/01/14 00:26:03;;;;;;;1.77;1.00;;;18.00;54.20;;;;;;4972721;28;20171;-84
2023/01/14 00:28:30;;;;;;;1.77;1.00;;;17.90;54.20;;;;;;4988149;28;20158;-85
2023/01/14 00:31:03;;;;;;;2.08;0.90;;;18.00;54.20;;;;;;4971777;28;20168;-85
2023/01/14 00:33:29;;;;;;;1.00;0.90;;;18.00;54.10;;;;;;4956022;28;20274;-85
2023/01/14 00:35:55;;;;;;;1.77;1.00;;;18.00;54.20;;;;;;4955890;28;20167;-84
2023/01/14 00:38:21;;;;;;;1.10;1.00;;;18.00;54.20;;;;;;4956890;28;20172;-85
2023/01/14 00:40:47;;;;;;;1.20;1.10;;;18.00;54.10;;;;;;4955438;28;20176;-85
2023/01/14 00:43:13;;;;;;;1.63;1.02;;;18.00;54.80;;;;;;4972823;28;20175;-85
2023/01/14 00:45:40;;;;;;;2.15;1.35;;;18.00;54.10;;;;;;4988082;28;20188;-85
2023/01/14 00:48:09;;;;;;;1.65;0.93;;;18.00;54.20;;;;;;4988016;28;20282;-85
2023/01/14 00:50:36;;;;;;;1.20;1.00;;;18.00;54.20;;;;;;4956228;28;20188;-84
2023/01/14 00:53:03;;;;;;;1.75;0.98;;;18.00;54.20;;;;;;4956305;28;20165;-85
2023/01/14 00:55:30;;;;;;;2.67;1.17;;;17.90;54.30;;;;;;4988253;28;20145;-85
2023/01/14 00:57:57;;;;;;;2.15;1.13;;;17.90;54.30;;;;;;4972791;28;20168;-85
2023/01/14 01:00:24;;;;;;;1.13;0.98;;;17.90;54.30;;;;;;4972149;28;20662;-85
2023/01/14 01:02:52;;;;;;;2.40;1.20;;;17.90;54.30;;;;;;4956466;28;20195;-85
2023/01/14 01:05:19;;;;;;;1.77;1.08;;;17.90;54.40;;;;;;4955534;28;20669;-85
2023/01/14 01:07:46;;;;;;;1.92;1.10;;;17.90;54.40;;;;;;4956266;28;20170;-85
2023/01/14 01:10:12;;;;;;;2.55;0.95;;;17.90;54.40;;;;;;4972006;28;20627;-85
2023/01/14 01:12:38;;;;;;;2.25;1.08;;;17.90;54.40;;;;;;4972200;28;20170;-85
2023/01/14 01:15:08;;;;;;;1.23;1.00;;;17.90;54.40;;;;;;4988038;28;20148;-85
2023/01/14 01:17:34;;;;;;;1.13;1.00;;;17.90;54.40;;;;;;4988024;28;20195;-85
2023/01/14 01:19:59;;;;;;;1.70;1.00;;;17.90;54.30;;;;;;4988747;28;20157;-85
2023/01/14 01:22:28;;;;;;;1.38;1.00;;;17.90;54.30;;;;;;4972004;28;20195;-85
2023/01/14 01:24:54;;;;;;;1.38;0.95;;;17.90;54.40;;;;;;4971686;28;20164;-85
2023/01/14 01:27:19;;;;;;;1.75;1.10;;;17.90;54.40;;;;;;4971983;28;20222;-85
2023/01/14 01:29:47;;;;;;;2.33;1.15;;;17.90;54.40;;;;;;4987595;28;20286;-85
2023/01/14 01:32:13;;;;;;;1.92;1.20;;;17.90;54.40;;;;;;4956037;28;20223;-85
2023/01/14 01:34:39;;;;;;;2.47;1.15;;;17.90;54.40;;;;;;4975422;28;20168;-85
2023/01/14 01:37:05;;;;;;;1.10;0.90;;;17.90;54.40;;;;;;4991519;28;20222;-84
2023/01/14 01:39:31;;;;;;;1.67;0.80;;;17.90;54.40;;;;;;4959490;28;20198;-85
2023/01/14 01:41:58;;;;;;;1.77;1.00;;;17.90;54.40;;;;;;4959008;28;20650;-84
2023/01/14 01:45:04;;;;;;;2.00;1.10;;;17.90;54.40;;;;;;4959480;28;20507;-85
2023/01/14 01:47:30;;;;;;;2.05;1.25;;;17.90;54.40;;;;;;4967512;28;20168;-85
2023/01/14 01:49:57;;;;;;;1.80;1.30;;;17.90;54.40;;;;;;4959006;28;20208;-85
2023/01/14 01:52:25;;;;;;;1.80;0.88;;;17.90;54.40;;;;;;4959060;28;20164;-85
2023/01/14 01:54:55;;;;;;;1.25;1.00;;;17.90;54.40;;;;;;4959250;28;20168;-85
2023/01/14 01:57:22;;;;;;;1.85;0.95;;;17.90;54.50;;;;;;4959454;28;20176;-85
2023/01/14 01:59:53;;;;;;;1.60;1.00;;;17.90;54.40;;;;;;4975675;28;20164;-85
2023/01/14 02:02:21;;;;;;;2.00;1.00;;;17.90;54.50;;;;;;4975343;28;20172;-85
2023/01/14 02:04:47;;;;;;;1.23;0.98;;;17.90;54.50;;;;;;4975039;28;20650;-85
2023/01/14 02:07:20;;;;;;;2.20;0.90;;;17.90;54.50;;;;;;4958802;28;20164;-85
2023/01/14 02:09:47;;;;;;;2.05;1.00;;;17.90;54.40;;;;;;4960018;28;20200;-85
2023/01/14 02:12:38;;;;;;;1.73;1.00;;;17.90;54.50;;;;;;4959102;28;20251;-85
2023/01/14 02:15:36;;;;;;;1.83;1.10;;;17.90;54.50;;;;;;4974865;28;20164;-85
2023/01/14 02:18:36;;;;;;;2.85;1.10;;;17.90;54.50;;;;;;4990586;28;20224;-85
2023/01/14 02:21:20;;;;;;;1.35;1.15;;;17.90;54.60;;;;;;4974021;28;20174;-84
2023/01/14 02:24:25;;;;;;;1.85;1.10;;;17.80;54.50;;;;;;4960817;28;20186;-84
2023/01/14 02:27:09;;;;;;;1.10;1.00;;;17.80;54.50;;;;;;4966469;28;20254;-84
2023/01/14 02:29:52;;;;;;;2.20;0.90;;;17.90;54.60;;;;;;4974689;28;20199;-84
2023/01/14 02:32:38;;;;;;;3.53;1.20;;;17.80;54.40;;;;;;4990047;28;20223;-84
2023/01/14 02:35:32;;;;;;;2.28;1.20;;;17.80;54.50;;;;;;4990326;28;20168;-84
2023/01/14 02:38:26;;;;;;;2.42;1.10;;;17.90;54.70;;;;;;4976161;28;20199;-83
2023/01/14 02:41:00;;;;;;;2.08;0.93;;;17.80;54.60;;;;;;4980431;28;20160;-85
2023/01/14 02:46:40;;;;;;;1.67;1.10;;;17.80;54.60;;;;;;4994811;28;20175;-84
2023/01/14 02:49:07;;;;;;;2.80;1.17;;;17.80;54.70;;;;;;4958496;28;20196;-84
2023/01/14 02:51:33;;;;;;;1.08;0.80;;;17.80;54.70;;;;;;4974363;28;20152;-84
2023/01/14 02:54:01;;;;;;;1.08;0.98;;;17.80;54.80;;;;;;4957666;28;20215;-84
2023/01/14 02:56:27;;;;;;;1.77;1.27;;;17.80;54.60;;;;;;4974127;28;20247;-84
2023/01/14 02:59:22;;;;;;;1.95;1.00;;;17.80;54.70;;;;;;4974047;28;20198;-84
2023/01/14 03:02:03;;;;;;;1.45;0.98;;;17.80;54.60;;;;;;4992396;28;20160;-84
2023/01/14 03:04:35;;;;;;;1.35;0.90;;;17.80;54.80;;;;;;4989984;28;20175;-84
2023/01/14 03:07:16;;;;;;;2.03;1.13;;;17.80;54.80;;;;;;4973446;28;20164;-84
2023/01/14 03:10:01;;;;;;;1.63;0.93;;;17.80;54.80;;;;;;4974057;28;20223;-85
2023/01/14 03:12:49;;;;;;;1.20;1.00;;;17.80;54.80;;;;;;4972974;28;20160;-84
2023/01/14 03:15:24;;;;;;;1.08;0.98;;;17.70;54.90;;;;;;5006814;28;20225;-84
2023/01/14 03:18:04;;;;;;;1.88;1.20;;;17.80;54.90;;;;;;4973575;28;20266;-84
2023/01/14 03:20:32;;;;;;;1.88;1.10;;;17.80;54.80;;;;;;4957432;28;20172;-84
2023/01/14 03:23:05;;;;;;;1.83;1.10;;;17.80;54.90;;;;;;4972708;28;20160;-84
2023/01/14 03:25:32;;;;;;;1.80;0.93;;;17.80;54.80;;;;;;4973031;28;20171;-84
2023/01/14 03:27:58;;;;;;;1.55;1.10;;;17.80;55.00;;;;;;4972918;28;20255;-84
2023/01/14 03:30:26;;;;;;;1.80;1.15;;;17.80;54.80;;;;;;4956566;28;20720;-84
2023/01/14 03:32:56;;;;;;;1.73;0.88;;;17.80;54.80;;;;;;4973130;28;20215;-85
2023/01/14 03:35:24;;;;;;;1.63;1.00;;;17.80;54.80;;;;;;4956843;28;20226;-85
2023/01/14 03:37:55;;;;;;;1.40;0.98;;;17.80;54.90;;;;;;4957617;28;20179;-84
2023/01/14 03:40:25;;;;;;;1.83;0.75;;;17.80;54.70;;;;;;4956899;28;20201;-85
2023/01/14 03:42:53;;;;;;;1.27;0.80;;;17.80;54.80;;;;;;4956589;28;20175;-85
2023/01/14 03:45:25;;;;;;;2.28;0.93;;;17.80;54.80;;;;;;4956542;28;20165;-84
2023/01/14 03:47:51;;;;;;;0.98;0.85;;;17.80;54.80;;;;;;4957452;28;20180;-84
2023/01/14 03:50:18;;;;;;;1.73;0.93;;;17.80;54.80;;;;;;4956250;28;20199;-84
2023/01/14 03:53:07;;;;;;;1.17;1.00;;;17.80;54.80;;;;;;4957203;28;20187;-84
2023/01/14 03:55:50;;;;;;;1.83;1.08;;;17.80;54.90;;;;;;4970985;28;20171;-85
2023/01/14 03:58:23;;;;;;;1.92;1.05;;;17.70;54.80;;;;;;4972366;28;20661;-85
2023/01/14 04:00:55;;;;;;;2.20;1.10;;;17.80;54.80;;;;;;4972821;28;20525;-84
2023/01/14 04:03:21;;;;;;;2.13;0.98;;;17.80;54.80;;;;;;4972684;28;20164;-84
2023/01/14 04:05:47;;;;;;;1.52;1.05;;;17.80;54.80;;;;;;4956857;28;20183;-84
2023/01/14 04:08:12;;;;;;;1.15;0.80;;;17.70;54.80;;;;;;4955945;28;20574;-84
2023/01/14 04:10:41;;;;;;;1.13;0.80;;;17.80;54.90;;;;;;4972615;28;20194;-84
2023/01/14 04:15:49;;;;;;;1.52;0.80;;;17.70;54.80;;;;;;4975572;28;20159;-84
2023/01/14 04:18:17;;;;;;;1.60;0.82;;;17.70;54.80;;;;;;4973366;28;20176;-85
2023/01/14 04:20:47;;;;;;;2.45;1.10;;;17.70;54.80;;;;;;4956445;28;20164;-84
2023/01/14 04:23:14;;;;;;;1.27;0.98;;;17.70;55.00;;;;;;4972318;28;20187;-84
2023/01/14 04:25:41;;;;;;;1.25;1.02;;;17.70;55.00;;;;;;4956204;28;20222;-84
2023/01/14 04:28:09;;;;;;;0.70;0.70;;;17.80;54.80;;;;;;4956045;28;20172;-84
2023/01/14 04:30:40;;;;;;;2.28;0.88;;;17.70;54.80;;;;;;4971525;28;20733;-84
2023/01/14 04:33:08;;;;;;;1.33;1.00;;;17.70;54.90;;;;;;4988038;28;20220;-85
2023/01/14 04:35:34;;;;;;;1.20;1.05;;;17.70;55.00;;;;;;4971572;28;20235;-85
2023/01/14 04:38:00;;;;;;;1.10;0.95;;;17.70;54.90;;;;;;4972762;28;20194;-84
2023/01/14 04:40:27;;;;;;;1.58;1.00;;;17.70;55.10;;;;;;4972848;28;20168;-84
2023/01/14 04:42:56;;;;;;;1.38;0.82;;;17.70;54.90;;;;;;4956815;28;20270;-84
2023/01/14 04:45:21;;;;;;;1.60;1.00;;;17.70;54.80;;;;;;4988264;28;20160;-84
2023/01/14 04:47:49;;;;;;;1.98;1.02;;;17.70;54.90;;;;;;4972639;28;20182;-84
2023/01/14 04:50:30;;;;;;;1.58;1.00;;;17.80;54.90;;;;;;4956404;28;20203;-85
2023/01/14 04:53:03;;;;;;;1.55;1.00;;;17.70;54.90;;;;;;4976352;28;20152;-84
2023/01/14 04:55:30;;;;;;;1.10;1.00;;;17.70;54.90;;;;;;4956730;28;20179;-85
2023/01/14 04:57:59;;;;;;;1.42;0.93;;;17.80;55.00;;;;;;4956147;28;20168;-84
2023/01/14 05:00:28;;;;;;;0.80;0.70;;;17.70;55.00;;;;;;5006952;28;20191;-84
2023/01/14 05:02:54;;;;;;;1.58;0.90;;;17.70;55.00;;;;;;4958825;28;20168;-85
2023/01/14 05:05:19;;;;;;;1.83;1.08;;;17.70;55.20;;;;;;4958920;28;20219;-84
2023/01/14 05:07:45;;;;;;;1.10;0.90;;;17.70;55.10;;;;;;4974802;28;20161;-84
2023/01/14 05:10:12;;;;;;;1.25;1.00;;;17.60;55.10;;;;;;4973432;28;20187;-85
2023/01/14 05:12:55;;;;;;;1.33;0.80;;;17.60;55.10;;;;;;4956453;28;20226;-85
2023/01/14 05:15:27;;;;;;;2.67;1.20;;;17.70;55.20;;;;;;4973915;28;20168;-84
2023/01/14 05:17:53;;;;;;;2.03;1.00;;;17.70;55.10;;;;;;4988782;28;20154;-85
2023/01/14 05:20:23;;;;;;;1.02;0.85;;;17.70;55.20;;;;;;4956090;28;20527;-84
2023/01/14 05:22:49;;;;;;;1.23;0.80;;;17.70;55.40;;;;;;4957780;28;20172;-85
2023/01/14 05:25:16;;;;;;;1.90;0.98;;;17.70;55.20;;;;;;4957173;28;20562;-84
2023/01/14 05:27:44;;;;;;;1.55;0.93;;;17.70;55.40;;;;;;4955675;28;20180;-85
2023/01/14 05:30:10;;;;;;;1.02;0.93;;;17.60;55.40;;;;;;4956631;28;20284;-85
2023/01/14 05:32:38;;;;;;;0.93;0.85;;;17.60;55.40;;;;;;4956601;28;20224;-85
2023/01/14 05:35:05;;;;;;;1.00;0.90;;;17.60;55.40;;;;;;4972774;28;20532;-85
2023/01/14 05:37:33;;;;;;;2.58;1.20;;;17.70;55.30;;;;;;4971714;28;20157;-85
2023/01/14 05:39:59;;;;;;;0.90;0.80;;;17.70;55.40;;;;;;4956066;28;20174;-85
2023/01/14 05:47:59;;;;;;;1.30;1.05;;;17.70;55.30;;;;;;4974804;28;20184;-85
2023/01/14 05:50:25;;;;;;;1.05;0.95;;;17.70;55.30;;;;;;4971405;28;20192;-85
2023/01/14 05:52:51;;;;;;;1.25;0.90;;;17.70;55.30;;;;;;4971520;28;20175;-85
2023/01/14 05:55:19;;;;;;;1.55;1.10;;;17.60;55.40;;;;;;4955263;28;20176;-85
2023/01/14 05:57:44;;;;;;;2.00;1.02;;;17.60;55.40;;;;;;4955397;28;20222;-84
2023/01/14 06:06:20;;;;;;;2.83;1.05;;;17.60;55.40;;;;;;4971143;28;20160;-85
2023/01/14 06:08:16;;;;;;;1.90;0.90;;;17.60;55.40;;;;;;4970598;28;20669;-84
2023/01/14 06:10:42;;;;;;;1.63;1.10;;;17.70;55.40;;;;;;4971163;28;20196;-84
2023/01/14 06:13:13;;;;;;;1.75;0.95;;;17.60;55.40;;;;;;4970786;28;20160;-85
2023/01/14 06:15:39;;;;;;;0.88;0.82;;;17.60;55.40;;;;;;4956336;28;20622;-85
2023/01/14 06:18:10;;;;;;;1.73;1.13;;;17.60;55.40;;;;;;4955442;28;20168;-84
2023/01/14 06:20:36;;;;;;;1.23;0.88;;;17.60;55.30;;;;;;4959333;28;20176;-84
2023/01/14 06:23:04;;;;;;;1.50;1.00;;;17.60;55.30;;;;;;4957929;28;20168;-85
2023/01/14 06:25:35;;;;;;;0.93;0.70;;;17.70;56.10;;;;;;4958664;28;20227;-85
2023/01/14 06:28:00;;;;;;;1.00;0.82;;;17.60;55.40;;;;;;4990104;28;20171;-85
2023/01/14 06:30:27;;;;;;;3.05;1.10;;;17.60;55.30;;;;;;4974949;28;20184;-85
2023/01/14 06:32:54;;;;;;;1.42;0.95;;;17.60;55.40;;;;;;4974257;28;20220;-85
2023/01/14 06:35:21;;;;;;;1.25;0.85;;;17.60;55.40;;;;;;4974278;28;20195;-85
2023/01/14 06:37:46;;;;;;;1.40;0.88;;;17.60;55.40;;;;;;4957850;28;20168;-85
2023/01/14 06:40:14;;;;;;;1.13;0.82;;;17.60;55.40;;;;;;4974241;28;20170;-85
2023/01/14 06:42:40;;;;;;;1.48;0.70;;;17.60;55.40;;;;;;4973200;28;20165;-85
2023/01/14 06:45:11;;;;;;;1.20;1.00;;;17.60;55.40;;;;;;4973636;28;20172;-85
2023/01/14 06:47:37;;;;;;;0.80;0.80;;;17.70;55.50;;;;;;4973116;28;20227;-85
2023/01/14 06:50:06;;;;;;;1.83;1.00;;;17.60;55.50;;;;;;4973785;28;20199;-85
2023/01/14 06:52:33;;;;;;;1.05;0.82;;;17.60;55.40;;;;;;4974294;28;20241;-84
2023/01/14 06:54:59;;;;;;;1.13;0.98;;;17.60;55.30;;;;;;4958787;28;20195;-85
2023/01/14 06:57:26;;;;;;;1.55;1.02;;;17.60;55.40;;;;;;4973653;28;20215;-85
2023/01/14 06:59:56;;;;;;;1.42;0.80;;;17.60;55.40;;;;;;4958339;28;20175;-85
2023/01/14 07:02:21;;;;;;;1.50;1.00;;;17.60;55.60;;;;;;4974467;28;20222;-85
2023/01/14 07:04:47;;;;;;;1.38;1.08;;;17.70;55.50;;;;;;4956744;28;20172;-85
2023/01/14 07:07:13;;;;;;;1.27;0.90;;;17.60;55.60;;;;;;4957409;28;20172;-85
2023/01/14 07:09:39;;;;;;;2.22;1.00;;;17.60;55.50;;;;;;4957317;28;20286;-85
2023/01/14 07:12:07;;;;;;;0.95;0.77;;;17.60;55.40;;;;;;4956789;28;20164;-85
2023/01/14 07:14:33;;;;;;;1.20;0.90;;;17.60;55.30;;;;;;4972221;28;20156;-85
2023/01/14 07:17:01;;;;;;;1.40;0.88;;;17.70;55.20;;;;;;4972826;28;20156;-85
2023/01/14 07:19:27;;;;;;;1.02;0.90;;;17.70;55.10;;;;;;4956603;28;20176;-85
2023/01/14 07:21:54;;;;;;;2.03;0.90;;;17.70;55.90;;;;;;4956176;28;20262;-85
2023/01/14 07:24:21;;;;;;;1.45;0.80;;;17.70;55.20;;;;;;4955908;28;20164;-85
2023/01/14 07:26:47;;;;;;;1.27;1.00;;;17.70;55.30;;;;;;4972015;28;20172;-85
2023/01/14 07:29:14;;;;;;;0.98;0.88;;;17.60;55.30;;;;;;4971455;28;20215;-85
2023/01/14 07:31:40;;;;;;;1.52;0.90;;;17.60;55.30;;;;;;4955706;28;20227;-85
2023/01/14 07:34:06;;;;;;;1.73;0.98;;;17.70;55.30;;;;;;4955951;28;20176;-85
2023/01/14 07:36:32;;;;;;;1.45;1.05;;;17.70;55.30;;;;;;4956643;28;20195;-85
2023/01/14 07:38:58;;;;;;;0.88;0.77;;;17.70;55.40;;;;;;4955081;28;20207;-85
2023/01/14 07:41:24;;;;;;;0.80;0.80;;;17.70;55.40;;;;;;4955989;28;20171;-85
2023/01/14 07:43:50;;;;;;;1.17;0.90;;;17.70;55.20;;;;;;4971020;28;20199;-85
2023/01/14 07:46:16;;;;;;;1.75;0.95;;;17.70;55.20;;;;;;4972087;28;20160;-85
2023/01/14 07:48:44;;;;;;;1.55;1.00;;;17.70;55.40;;;;;;4970967;28;20172;-84
2023/01/14 07:51:10;;;;;;;1.27;1.00;;;17.70;55.30;;;;;;4973596;28;20223;-83
2023/01/14 07:53:36;;;;;;;1.20;1.00;;;17.70;55.40;;;;;;4957495;28;20176;-83
2023/01/14 07:56:05;;;;;;;1.23;0.98;;;17.70;55.40;;;;;;4956254;28;20168;-83
2023/01/14 07:58:31;;;;;;;0.85;0.80;;;17.60;55.30;;;;;;4955789;28;20183;-84
2023/01/14 08:00:57;;;;;;;1.10;0.98;;;17.70;55.30;;;;;;4952497;28;20243;-84
2023/01/14 08:03:26;;;;;;;2.00;1.00;;;17.60;55.30;;;;;;4956091;28;20520;-84
2023/01/14 08:05:53;;;;;;;1.10;0.80;;;17.60;55.60;;;;;;4990293;28;20178;-85
2023/01/14 08:08:19;;;;;;;1.15;0.90;;;17.60;55.60;;;;;;4957610;28;20194;-84
2023/01/14 08:10:44;;;;;;;0.90;0.70;;;17.70;55.80;;;;;;4974335;28;20223;-84
2023/01/14 08:13:13;;;;;;;2.17;0.93;;;17.60;55.70;;;;;;4958265;28;20168;-84
2023/01/14 08:15:39;;;;;;;3.33;0.80;;;17.60;55.70;;;;;;4973418;28;20164;-85
2023/01/14 08:18:06;;;;;;;2.38;1.17;;;17.60;55.70;;;;;;4973813;28;20167;-84
2023/01/14 08:20:32;;;;;;;3.15;1.35;;;17.60;55.70;;;;;;4957885;28;20172;-84
2023/01/14 08:23:00;;;;;;;4.47;1.05;;;17.60;56.40;;;;;;4973696;28;20571;-84
2023/01/14 08:25:27;;;;;;;2.75;1.00;;;17.60;55.80;;;;;;4989461;28;20217;-84
2023/01/14 08:27:54;;;;;;;1.05;0.93;;;17.60;55.70;;;;;;4989815;28;20164;-85
2023/01/14 08:30:21;;;;;;;1.02;0.80;;;17.60;55.70;;;;;;4957939;28;20195;-84
2023/01/14 08:32:48;;;;;;;1.02;0.85;;;17.60;55.70;;;;;;4966586;28;20227;-84
2023/01/14 08:35:15;;;;;;;2.45;0.82;;;17.70;55.50;;;;;;4972587;28;20160;-84
2023/01/14 08:37:41;;;;;;;1.88;0.88;;;17.70;55.40;;;;;;4987467;28;20168;-84
2023/01/14 08:40:08;;;;;;;2.35;0.90;;;17.80;55.20;;;;;;4988135;28;20246;-83
2023/01/14 08:42:38;;;;;;;4.43;1.00;;;17.90;55.10;;;;;;5005827;28;20246;-84
2023/01/14 08:45:05;;;;;;;2.78;0.90;;;17.90;54.90;;;;;;4988666;28;20168;-84
2023/01/14 08:47:35;;;;;;;1.38;1.00;;;17.90;54.80;;;;;;4973492;28;20179;-85
2023/01/14 08:50:00;;;;;;;1.13;0.75;;;18.00;54.90;;;;;;4970119;28;20200;-84
2023/01/14 08:52:27;;;;;;;1.23;0.80;;;18.00;54.70;;;;;;4997915;28;20278;-83
2023/01/14 08:54:52;;;;;;;1.67;0.80;;;18.00;54.80;;;;;;4975287;28;20164;-86
2023/01/14 08:57:18;;;;;;;1.45;1.00;;;18.10;54.90;;;;;;4969043;28;20223;-82
2023/01/14 08:59:45;;;;;;;4.38;0.80;;;18.10;54.80;;;;;;4965437;28;20231;-83
2023/01/14 09:02:14;;;;;;;1.40;0.80;;;18.10;54.50;;;;;;4967060;28;20587;-82
2023/01/14 09:04:39;;;;;;;1.20;0.90;;;18.20;54.60;;;;;;4949110;28;20172;-81
2023/01/14 09:17:59;;;;;;;1.65;0.85;;;18.10;54.70;;;;;;4973117;28;20152;-82
2023/01/14 09:20:33;;;;;;;0.82;0.60;;;18.20;54.90;;;;;;4985458;28;20148;-83
2023/01/14 09:23:00;;;;;;;1.15;0.60;;;18.10;54.60;;;;;;4952898;28;20167;-83
2023/01/14 09:25:25;;;;;;;3.47;0.70;;;18.20;54.60;;;;;;4951435;28;20164;-83
2023/01/14 09:27:51;;;;;;;0.85;0.70;;;18.20;54.60;;;;;;4967139;28;20168;-83
2023/01/14 09:30:19;;;;;;;1.00;0.70;;;18.20;54.70;;;;;;4954760;28;20196;-82
2023/01/14 09:32:45;;;;;;;1.05;0.85;;;18.20;54.60;;;;;;4942468;28;20308;-83
2023/01/14 09:35:13;;;;;;;1.75;0.88;;;18.20;54.60;;;;;;4951631;28;20168;-83
2023/01/14 09:37:40;;;;;;;2.85;0.75;;;18.20;54.50;;;;;;4948416;28;20691;-83
2023/01/14 09:40:06;;;;;;;3.15;0.80;;;18.30;54.60;;;;;;4949809;28;20169;-83
2023/01/14 09:42:42;;;;;;;2.35;0.70;;;18.20;54.70;;;;;;4965546;28;20165;-84
2023/01/14 09:45:25;;;;;;;1.65;0.80;;;18.30;54.60;;;;;;4944999;28;20162;-83
2023/01/14 09:47:52;;;;;;;2.45;0.90;;;18.30;54.50;;;;;;4968805;28;20153;-84
2023/01/14 09:50:31;;;;;;;2.25;0.80;;;18.30;54.70;;;;;;4949079;28;20211;-85
2023/01/14 09:53:14;;;;;;;1.98;0.90;;;18.30;54.90;;;;;;4946293;28;20319;-84
2023/01/14 09:55:48;;;;;;;1.95;0.93;;;18.30;54.80;;;;;;4967160;28;20185;-85
2023/01/14 09:58:22;;;;;;;2.72;0.63;;;18.30;54.90;;;;;;4936248;28;20156;-83
2023/01/14 10:01:17;;;;;;;0.80;0.73;;;18.30;55.00;;;;;;4940120;29;20229;-86
2023/01/14 10:03:59;;;;;;;3.05;0.70;;;18.30;54.90;;;;;;4965419;29;20158;-83
2023/01/14 10:06:25;;;;;;;2.17;0.90;;;18.30;55.00;;;;;;4971413;28;20220;-82
2023/01/14 10:08:58;;;;;;;3.38;0.80;;;18.30;55.20;;;;;;4956918;28;20204;-83
2023/01/14 10:11:26;;;;;;;3.15;0.70;;;18.30;55.30;;;;;;4963782;28;20176;-84
2023/01/14 10:14:13;;;;;;;0.57;0.57;;;18.30;55.30;;;;;;4939504;29;20668;-85
2023/01/14 10:16:48;;;;;;;2.20;0.75;;;18.40;55.30;;;;;;4954177;29;20177;-84
2023/01/14 10:19:20;;;;;;;2.15;0.70;;;18.30;55.30;;;;;;4943695;28;20190;-83
2023/01/14 10:21:49;;;;;;;5.10;0.98;;;18.40;55.40;;;;;;4955667;28;20275;-83
2023/01/14 10:24:16;;;;;;;1.55;0.77;;;18.40;55.20;;;;;;4937988;28;20240;-83
2023/01/14 10:26:58;;;;;;;1.98;0.90;;;18.30;55.30;;;;;;4950104;28;20624;-83
2023/01/14 10:29:28;;;;;;;1.75;0.80;;;18.40;55.80;;;;;;4936970;28;20307;-84
2023/01/14 10:31:57;;;;;;;1.15;0.50;;;18.40;55.50;;;;;;4935200;28;20580;-84
2023/01/14 10:34:47;;;;;;;1.15;0.73;;;18.40;55.60;;;;;;4945795;28;20187;-82
2023/01/14 10:37:16;;;;;;;1.92;0.77;;;18.40;55.90;;;;;;4989353;28;20190;-84
2023/01/14 10:39:46;;;;;;;1.80;0.90;;;18.40;55.90;;;;;;4953650;28;20184;-84
2023/01/14 10:42:14;;;;;;;3.28;0.93;;;18.30;56.00;;;;;;4961359;28;20266;-83
2023/01/14 10:44:43;;;;;;;7.50;0.82;;;18.40;55.90;;;;;;4956545;28;20184;-84
2023/01/14 10:47:12;;;;;;;3.90;0.88;;;18.40;56.10;;;;;;4956702;28;20211;-85
2023/01/14 10:49:57;;;;;;;3.20;0.80;;;18.30;55.90;;;;;;4953626;28;20265;-84
2023/01/14 10:52:27;;;;;;;6.13;1.02;;;18.30;56.20;;;;;;4971398;28;20186;-85
2023/01/14 10:55:15;;;;;;;8.63;1.17;;;18.40;56.20;;;;;;4963818;28;20210;-84
2023/01/14 10:57:49;;;;;;;7.95;0.95;;;18.30;56.20;;;;;;4961774;28;20164;-84
2023/01/14 11:00:31;;;;;;;4.60;0.93;;;18.40;56.30;;;;;;4973474;28;20199;-83
2023/01/14 11:03:09;;;;;;;5.53;0.80;;;18.40;56.30;;;;;;4973150;28;20370;-83
2023/01/14 11:05:37;;;;;;;4.45;0.90;;;18.40;56.50;;;;;;4957799;28;20172;-83
2023/01/14 11:08:20;;;;;;;11.10;1.02;;;18.40;56.50;;;;;;4971338;28;20628;-85
2023/01/14 11:10:57;;;;;;;6.20;0.90;;;18.40;56.60;;;;;;4956151;28;20212;-82
2023/01/14 11:13:30;;;;;;;6.63;1.13;;;18.50;56.60;;;;;;4973881;28;20247;-83
2023/01/14 11:15:56;;;;;;;5.45;0.80;;;18.40;56.70;;;;;;4975516;28;20160;-85
2023/01/14 11:18:25;;;;;;;6.03;1.00;;;18.50;56.90;;;;;;4976060;28;20493;-84
2023/01/14 11:21:13;;;;;;;4.72;1.17;;;18.50;56.90;;;;;;4976118;28;20180;-84
2023/01/14 11:23:41;;;;;;;10.52;1.00;;;18.40;57.30;;;;;;4945515;28;20269;-82
2023/01/14 11:26:38;;;;;;;3.95;1.00;;;18.40;56.90;;;;;;4976110;28;20642;-84
2023/01/14 11:29:19;;;;;;;5.88;1.00;;;18.50;57.10;;;;;;4975624;28;20215;-84
2023/01/14 11:31:45;;;;;;;9.45;0.98;;;18.50;56.90;;;;;;4968755;28;20272;-84
2023/01/14 11:34:29;;;;;;;6.35;0.95;;;18.50;56.90;;;;;;4937200;28;20714;-84
2023/01/14 11:37:53;;;;;;;3.42;0.70;;;18.50;56.80;;;;;;4935567;28;20257;-85
2023/01/14 11:41:28;;;;;;;6.18;0.70;;;18.50;56.90;;;;;;4923430;29;20234;-84
2023/01/14 11:43:25;;;;;;;4.38;0.70;;;18.50;56.80;;;;;;4911248;29;20182;-85
2023/01/14 11:46:05;;;;;;;6.03;0.90;;;18.50;56.90;;;;;;4894691;29;20171;-84
2023/01/14 11:48:31;;;;;;;3.40;0.60;;;18.50;56.90;;;;;;4892454;29;20193;-83
2023/01/14 11:51:03;;;;;;;4.07;0.70;;;18.50;56.90;;;;;;4897598;29;20609;-83
2023/01/14 11:53:41;;;;;;;10.00;0.82;;;18.50;57.00;;;;;;4916141;29;20158;-83
2023/01/14 11:56:09;;;;;;;3.70;0.57;;;18.50;57.10;;;;;;4918145;29;20285;-84
2023/01/14 11:58:35;;;;;;;2.05;0.50;;;18.50;57.00;;;;;;4890470;29;20181;-84
2023/01/14 12:01:04;;;;;;;1.63;0.50;;;18.50;57.00;;;;;;4873923;29;20191;-84
2023/01/14 12:03:47;;;;;;;2.85;0.70;;;18.50;57.20;;;;;;4904541;29;20163;-83
2023/01/14 12:06:17;;;;;;;3.92;0.70;;;18.50;57.20;;;;;;4889330;29;20218;-85
2023/01/14 12:08:50;;;;;;;5.70;0.80;;;18.50;57.10;;;;;;4872463;29;20201;-84
2023/01/14 12:11:20;;;;;;;6.90;0.73;;;18.60;57.40;;;;;;4914736;28;20212;-84
2023/01/14 12:16:50;;;;;;;7.43;0.80;;;18.60;57.40;;;;;;4973804;28;20206;-84
2023/01/14 12:19:48;;;;;;;9.43;0.95;;;18.60;57.40;;;;;;5138874;27;20492;-84
2023/01/14 12:22:20;;;;;;;1.80;0.68;;;18.60;57.30;;;;;;5095498;28;20251;-83
2023/01/14 12:25:06;;;;;;;4.78;0.70;;;18.60;57.40;;;;;;5094178;28;20214;-83
2023/01/14 12:28:06;;;;;;;5.72;0.75;;;18.60;57.30;;;;;;5045494;28;20197;-83
2023/01/14 12:30:53;;;;;;;2.13;0.70;;;18.60;57.20;;;;;;5046898;28;20198;-84
2023/01/14 12:33:27;;;;;;;0.98;0.60;;;18.60;56.90;;;;;;5059653;28;20277;-83
2023/01/14 12:36:19;;;;;;;1.95;0.60;;;18.60;56.90;;;;;;5060167;28;20671;-83
2023/01/14 12:47:34;;;;;;;2.75;0.60;;;18.60;56.90;;;;;;5038897;28;20312;-84
2023/01/14 12:50:08;;;;;;;1.05;0.50;;;18.60;57.00;;;;;;4978975;28;20184;-84
2023/01/14 12:52:38;;;;;;;1.70;0.60;;;18.60;57.10;;;;;;4962333;28;20619;-84
2023/01/14 12:55:05;;;;;;;2.85;0.50;;;18.60;57.20;;;;;;4981894;28;20238;-83
2023/01/14 12:57:35;;;;;;;2.42;0.73;;;18.60;57.00;;;;;;4976391;28;20619;-84
2023/01/14 13:00:05;;;;;;;3.17;0.60;;;18.60;57.10;;;;;;4953897;29;20200;-84
2023/01/14 13:02:41;;;;;;;1.52;0.50;;;18.60;56.80;;;;;;4981821;28;20188;-84
2023/01/14 13:05:10;;;;;;;1.80;0.50;;;18.60;56.90;;;;;;4975915;28;20172;-84
2023/01/14 13:08:41;;;;;;;0.57;0.40;;;18.60;56.80;;;;;;4963320;28;20668;-84
2023/01/14 13:11:16;;;;;;;1.80;0.57;;;18.60;56.90;;;;;;4969989;28;20177;-84
2023/01/14 13:13:51;;;;;;;2.70;0.60;;;18.60;57.00;;;;;;4973245;28;20189;-84
2023/01/14 13:16:34;;;;;;;2.05;0.50;;;18.60;56.70;;;;;;4957686;28;20172;-84
2023/01/14 13:19:02;;;;;;;0.57;0.50;;;18.60;56.90;;;;;;4957269;28;20221;-84
2023/01/14 13:21:59;;;;;;;1.45;0.50;;;18.60;57.00;;;;;;4948148;28;20607;-86
2023/01/14 13:24:34;;;;;;;1.88;0.50;;;18.60;56.90;;;;;;4994401;28;20179;-84
2023/01/14 13:27:21;;;;;;;1.02;0.57;;;18.70;57.00;;;;;;4994522;28;20675;-83
2023/01/14 13:29:46;;;;;;;0.77;0.52;;;18.70;56.90;;;;;;5035006;28;20548;-83
2023/01/14 13:32:48;;;;;;;2.00;0.60;;;18.70;56.80;;;;;;5066224;28;20173;-84
2023/01/14 13:35:18;;;;;;;1.17;0.57;;;18.60;57.00;;;;;;5088118;28;20177;-85
2023/01/14 13:37:47;;;;;;;2.67;0.60;;;18.70;57.00;;;;;;5054510;28;20227;-85
2023/01/14 13:40:17;;;;;;;3.70;0.63;;;18.60;56.90;;;;;;5065644;28;20156;-84
2023/01/14 13:42:43;;;;;;;3.50;0.50;;;18.70;56.90;;;;;;4985892;28;20185;-84
2023/01/14 13:45:22;;;;;;;2.13;0.50;;;18.70;56.80;;;;;;4949242;28;20211;-84
2023/01/14 13:47:48;;;;;;;1.15;0.57;;;18.60;56.70;;;;;;4968592;28;20369;-84